Time;durP1;ratioP1;P1;durP2;ratioP2;P2;SDS_P1;SDS_P2;PMS_P1;PMS_P2;Temp;Humidity;BMP_temperature;BMP_pressure;BME280_temperature;BME280_humidity;BME280_pressure;Samples;Min_cycle;Max_cycle;Signal;HPM_P1;HPM_P2
2023/04/13 00:02:11;;;;;;;4.35;1.80;;;8.10;99.90;;;;;;5095698;28;20166;-59
2023/04/13 00:04:37;;;;;;;4.45;1.90;;;8.00;99.90;;;;;;5095589;28;20182;-58
2023/04/13 00:07:03;;;;;;;6.43;1.88;;;8.10;99.90;;;;;;5095489;28;20178;-59
2023/04/13 00:09:32;;;;;;;5.72;1.95;;;8.10;99.90;;;;;;5095475;28;20181;-59
2023/04/13 00:11:57;;;;;;;4.88;1.60;;;8.10;99.90;;;;;;5095192;28;20733;-58
2023/04/13 00:14:32;;;;;;;4.18;1.90;;;8.10;99.90;;;;;;5095529;28;20174;-58
2023/04/13 00:16:58;;;;;;;5.30;1.92;;;8.10;99.90;;;;;;5095564;28;20574;-59
2023/04/13 00:19:24;;;;;;;5.03;1.70;;;8.20;99.90;;;;;;5095215;28;20553;-58
2023/04/13 00:21:53;;;;;;;5.38;1.90;;;8.10;99.90;;;;;;5077141;28;20186;-58
2023/04/13 00:24:20;;;;;;;6.03;1.90;;;8.20;99.90;;;;;;5095139;28;20166;-59
2023/04/13 00:26:46;;;;;;;7.53;1.70;;;8.20;99.90;;;;;;5095321;28;20256;-58
2023/04/13 00:29:13;;;;;;;4.70;2.13;;;8.20;99.90;;;;;;5095324;28;20250;-58
2023/04/13 00:31:38;;;;;;;4.32;1.50;;;8.20;99.90;;;;;;5094930;28;20297;-60
2023/04/13 00:34:05;;;;;;;5.07;1.90;;;8.10;99.90;;;;;;5095003;28;20679;-57
2023/04/13 00:36:31;;;;;;;6.30;2.45;;;8.20;99.90;;;;;;5094773;28;20184;-59
2023/04/13 00:38:58;;;;;;;5.55;2.30;;;8.20;99.90;;;;;;5095086;28;20185;-59
2023/04/13 00:41:24;;;;;;;6.65;2.20;;;8.30;99.90;;;;;;5095261;28;20176;-59
2023/04/13 00:43:53;;;;;;;8.30;2.83;;;8.30;99.90;;;;;;5094881;28;20195;-59
2023/04/13 00:46:21;;;;;;;7.70;2.50;;;8.40;99.90;;;;;;5094896;28;20535;-59
2023/04/13 00:48:48;;;;;;;10.02;3.10;;;8.30;99.90;;;;;;5094913;28;20217;-59
2023/04/13 00:51:17;;;;;;;7.28;2.30;;;8.30;99.90;;;;;;5094505;28;20197;-59
2023/04/13 00:53:43;;;;;;;12.00;3.00;;;8.30;99.90;;;;;;5094815;28;20177;-59
2023/04/13 00:56:09;;;;;;;9.38;2.58;;;8.30;99.90;;;;;;5094663;28;20170;-59
2023/04/13 00:58:36;;;;;;;6.72;2.50;;;8.40;99.90;;;;;;5094234;28;20560;-59
2023/04/13 01:01:02;;;;;;;7.13;2.65;;;8.50;99.90;;;;;;5094306;28;20178;-59
2023/04/13 01:03:28;;;;;;;7.18;2.35;;;8.40;99.90;;;;;;5094357;28;20655;-59
2023/04/13 01:06:12;;;;;;;8.23;1.98;;;8.40;99.90;;;;;;5094342;28;20170;-58
2023/04/13 01:09:10;;;;;;;6.97;2.47;;;8.40;99.90;;;;;;5094638;28;20162;-57
2023/04/13 01:11:55;;;;;;;6.32;1.88;;;8.50;99.90;;;;;;5094208;28;20205;-58
2023/04/13 01:14:32;;;;;;;6.75;2.40;;;8.40;99.90;;;;;;5094272;28;20238;-57
2023/04/13 01:17:02;;;;;;;5.93;2.25;;;8.30;99.90;;;;;;5094362;28;20199;-58
2023/04/13 01:19:55;;;;;;;5.45;2.00;;;8.30;99.90;;;;;;5094248;28;20167;-57
2023/04/13 01:22:26;;;;;;;5.78;1.90;;;8.30;99.90;;;;;;5094012;28;20582;-58
2023/04/13 01:25:13;;;;;;;5.47;1.58;;;8.30;99.90;;;;;;5094301;28;20170;-59
2023/04/13 01:28:00;;;;;;;8.25;2.08;;;8.30;99.90;;;;;;5094086;28;20162;-58
2023/04/13 01:30:27;;;;;;;7.88;2.33;;;8.20;99.90;;;;;;5093870;28;20633;-59
2023/04/13 01:32:54;;;;;;;8.45;2.30;;;8.20;99.90;;;;;;5093767;28;20182;-59
2023/04/13 01:35:21;;;;;;;5.93;2.05;;;8.30;99.90;;;;;;5094058;28;20178;-58
2023/04/13 01:37:51;;;;;;;5.90;2.00;;;8.30;99.90;;;;;;5093846;28;20189;-57
2023/04/13 01:40:18;;;;;;;6.22;2.10;;;8.20;99.90;;;;;;5093823;28;20180;-58
2023/04/13 01:42:44;;;;;;;6.03;2.22;;;8.30;99.90;;;;;;5093811;28;20660;-58
2023/04/13 01:45:49;;;;;;;7.53;2.08;;;8.30;99.90;;;;;;5093641;28;20264;-57
2023/04/13 01:48:33;;;;;;;5.22;1.95;;;8.30;99.90;;;;;;5093492;28;20227;-58
2023/04/13 01:51:31;;;;;;;5.68;1.60;;;8.30;99.90;;;;;;5093685;28;20550;-58
2023/04/13 01:54:12;;;;;;;5.50;2.00;;;8.20;99.90;;;;;;5092921;28;20186;-58
2023/04/13 01:56:39;;;;;;;4.63;1.85;;;8.30;99.90;;;;;;5093577;28;20546;-59
2023/04/13 01:59:06;;;;;;;4.53;1.50;;;8.30;99.90;;;;;;5093748;28;20260;-58
2023/04/13 02:01:31;;;;;;;3.22;1.75;;;8.40;99.90;;;;;;5092342;28;20586;-58
2023/04/13 02:03:57;;;;;;;4.65;1.80;;;8.40;99.90;;;;;;5093465;28;20176;-58
2023/04/13 02:06:23;;;;;;;3.83;1.80;;;8.30;99.90;;;;;;5093352;28;20178;-58
2023/04/13 02:08:49;;;;;;;6.72;2.03;;;8.30;99.90;;;;;;5093545;28;20162;-58
2023/04/13 02:11:14;;;;;;;3.38;1.52;;;8.30;99.90;;;;;;5092502;28;20606;-58
2023/04/13 02:13:41;;;;;;;4.72;1.70;;;8.30;99.90;;;;;;5093532;28;20178;-58
2023/04/13 02:16:07;;;;;;;6.30;1.95;;;8.30;99.90;;;;;;5093210;28;20706;-58
2023/04/13 02:18:34;;;;;;;5.05;1.90;;;8.30;99.90;;;;;;5093150;28;20170;-58
2023/04/13 02:21:08;;;;;;;3.53;1.90;;;8.20;99.90;;;;;;5075152;28;20169;-58
2023/04/13 02:23:40;;;;;;;5.80;1.67;;;8.10;99.90;;;;;;5093318;28;20260;-58
2023/04/13 02:26:11;;;;;;;5.57;1.55;;;8.10;99.90;;;;;;5093086;28;20632;-58
2023/04/13 02:28:39;;;;;;;4.03;1.65;;;8.20;99.90;;;;;;5093307;28;20172;-58
2023/04/13 02:31:05;;;;;;;2.42;1.40;;;8.30;99.90;;;;;;5092943;28;20198;-58
2023/04/13 02:33:31;;;;;;;3.75;1.83;;;8.20;99.90;;;;;;5092996;28;20173;-59
2023/04/13 02:35:58;;;;;;;3.85;1.77;;;8.10;99.90;;;;;;5093234;28;20256;-58
2023/04/13 02:38:24;;;;;;;4.88;1.75;;;8.10;99.90;;;;;;5093214;28;20173;-58
2023/04/13 02:40:54;;;;;;;3.63;1.50;;;8.10;99.90;;;;;;5093070;28;20181;-58
2023/04/13 02:43:20;;;;;;;4.13;1.40;;;8.00;99.90;;;;;;5092966;28;20178;-58
2023/04/13 02:45:46;;;;;;;4.22;1.42;;;8.00;99.90;;;;;;5074899;28;20209;-58
2023/04/13 02:48:12;;;;;;;4.80;1.90;;;8.00;99.90;;;;;;5092964;28;20616;-58
2023/04/13 02:50:37;;;;;;;5.05;1.65;;;8.00;99.90;;;;;;5093035;28;20203;-58
2023/04/13 02:53:03;;;;;;;4.95;1.88;;;7.90;99.90;;;;;;5093036;28;20188;-59
2023/04/13 02:55:29;;;;;;;5.63;2.08;;;7.80;99.90;;;;;;5093002;28;20240;-59
2023/04/13 02:57:56;;;;;;;7.28;2.05;;;7.70;99.90;;;;;;5092873;28;20174;-59
2023/04/13 03:00:24;;;;;;;4.38;1.70;;;7.80;99.90;;;;;;5093039;28;20570;-60
2023/04/13 03:02:50;;;;;;;4.55;1.42;;;7.80;99.90;;;;;;5092923;28;20178;-59
2023/04/13 03:05:16;;;;;;;4.18;1.60;;;7.70;99.90;;;;;;5092688;28;20173;-57
2023/04/13 03:07:42;;;;;;;4.57;1.70;;;7.60;99.90;;;;;;5092823;28;20173;-58
2023/04/13 03:10:09;;;;;;;4.47;1.63;;;7.70;99.90;;;;;;5092660;28;20178;-59
2023/04/13 03:12:35;;;;;;;4.57;1.50;;;7.60;99.90;;;;;;5092766;28;20648;-58
2023/04/13 03:15:09;;;;;;;3.45;1.30;;;7.60;99.90;;;;;;5092615;28;20240;-58
2023/04/13 03:17:39;;;;;;;2.83;2.03;;;7.60;99.90;;;;;;5092872;28;20187;-60
2023/04/13 03:20:08;;;;;;;4.13;1.45;;;7.60;99.90;;;;;;5092776;28;20170;-60
2023/04/13 03:22:35;;;;;;;3.40;1.63;;;7.60;99.90;;;;;;5093977;28;20181;-59
2023/04/13 03:25:01;;;;;;;4.18;1.70;;;7.70;99.90;;;;;;5096364;28;20185;-59
2023/04/13 03:27:27;;;;;;;5.40;2.05;;;7.50;99.90;;;;;;5096316;28;20509;-59
2023/04/13 03:29:52;;;;;;;3.33;1.90;;;7.50;99.90;;;;;;5096518;28;20178;-57
2023/04/13 03:32:18;;;;;;;4.15;1.52;;;7.50;99.90;;;;;;5096087;28;20206;-59
2023/04/13 03:34:44;;;;;;;2.75;1.60;;;7.50;99.90;;;;;;5096203;28;20206;-57
2023/04/13 03:37:10;;;;;;;5.57;1.60;;;7.50;99.90;;;;;;5096037;28;20265;-59
2023/04/13 03:39:38;;;;;;;3.67;1.73;;;7.50;99.90;;;;;;5096278;28;20212;-60
2023/04/13 03:42:04;;;;;;;5.10;1.60;;;7.60;99.90;;;;;;5101957;28;20177;-58
2023/04/13 03:44:30;;;;;;;4.65;1.50;;;7.50;99.90;;;;;;5116745;28;20264;-58
2023/04/13 03:46:55;;;;;;;4.35;1.40;;;7.50;99.90;;;;;;5116564;28;20195;-60
2023/04/13 03:49:21;;;;;;;5.70;1.75;;;7.40;99.90;;;;;;5116234;28;20706;-58
2023/04/13 03:51:47;;;;;;;2.95;1.42;;;7.40;99.90;;;;;;5116280;28;20261;-59
2023/04/13 03:54:13;;;;;;;2.92;1.27;;;7.40;99.90;;;;;;5116265;28;20181;-59
2023/04/13 03:56:39;;;;;;;4.22;1.63;;;7.40;99.90;;;;;;5116100;28;20173;-59
2023/04/13 03:59:04;;;;;;;4.07;1.55;;;7.30;99.90;;;;;;5115968;28;20196;-60
2023/04/13 04:01:30;;;;;;;3.78;1.80;;;7.30;99.90;;;;;;5098077;28;20169;-59
2023/04/13 04:03:56;;;;;;;5.15;1.52;;;7.20;99.90;;;;;;5116117;28;20186;-59
2023/04/13 04:06:26;;;;;;;2.72;1.42;;;7.30;99.90;;;;;;5116073;28;20176;-59
2023/04/13 04:08:52;;;;;;;3.58;1.65;;;7.30;99.90;;;;;;5115949;28;20177;-59
2023/04/13 04:11:17;;;;;;;4.43;1.60;;;7.30;99.90;;;;;;5115701;28;20196;-57
2023/04/13 04:13:43;;;;;;;3.25;1.50;;;7.20;99.90;;;;;;5116060;28;20639;-59
2023/04/13 04:16:10;;;;;;;3.85;1.55;;;7.20;99.90;;;;;;5097707;28;20180;-59
2023/04/13 04:18:36;;;;;;;2.92;1.58;;;7.20;99.90;;;;;;5115816;28;20230;-60
2023/04/13 04:21:02;;;;;;;4.22;1.52;;;7.20;99.90;;;;;;5115749;28;20200;-58
2023/04/13 04:23:29;;;;;;;3.08;2.00;;;7.30;99.90;;;;;;5113186;28;20651;-58
2023/04/13 04:25:58;;;;;;;4.32;1.58;;;7.30;99.90;;;;;;5114443;28;20183;-58
2023/04/13 04:28:24;;;;;;;5.05;1.80;;;7.40;99.90;;;;;;5114720;28;20169;-58
2023/04/13 04:30:53;;;;;;;2.97;1.40;;;7.30;99.90;;;;;;5115604;28;20728;-58
2023/04/13 04:33:22;;;;;;;3.50;1.80;;;7.30;99.90;;;;;;5114815;28;20264;-59
2023/04/13 04:35:50;;;;;;;3.85;1.50;;;7.40;99.90;;;;;;5114506;28;20311;-58
2023/04/13 04:38:17;;;;;;;3.70;1.67;;;7.40;99.90;;;;;;5112105;28;20186;-58
2023/04/13 04:40:44;;;;;;;5.68;1.73;;;7.40;99.90;;;;;;5114787;28;20205;-58
2023/04/13 04:43:12;;;;;;;2.15;1.40;;;7.40;99.90;;;;;;5114849;28;20169;-59
2023/04/13 04:45:42;;;;;;;4.22;1.90;;;7.40;99.90;;;;;;5114580;28;20185;-59
2023/04/13 04:48:08;;;;;;;3.35;1.73;;;7.40;99.90;;;;;;5114787;28;20315;-58
2023/04/13 04:50:36;;;;;;;3.35;1.75;;;7.40;99.90;;;;;;5115023;28;20200;-58
2023/04/13 04:53:02;;;;;;;6.07;3.20;;;7.50;99.90;;;;;;5114965;28;20180;-58
2023/04/13 04:55:28;;;;;;;4.07;2.38;;;7.40;99.90;;;;;;5115176;28;20539;-58
2023/04/13 04:57:53;;;;;;;4.13;1.60;;;7.40;99.90;;;;;;5115106;28;20184;-58
2023/04/13 05:00:19;;;;;;;5.57;2.13;;;7.40;99.90;;;;;;5114997;28;20581;-58
2023/04/13 05:02:46;;;;;;;3.85;2.03;;;7.40;99.90;;;;;;5114932;28;20180;-58
2023/04/13 05:05:12;;;;;;;3.92;2.05;;;7.40;99.90;;;;;;5114749;28;20627;-58
2023/04/13 05:07:38;;;;;;;6.68;1.83;;;7.40;99.90;;;;;;5114664;28;20164;-58
2023/04/13 05:10:06;;;;;;;4.25;1.90;;;7.40;99.90;;;;;;5114316;28;20204;-59
2023/04/13 05:12:32;;;;;;;4.95;1.92;;;7.40;99.90;;;;;;5114238;28;20209;-58
2023/04/13 05:14:57;;;;;;;4.80;1.90;;;7.40;99.90;;;;;;5114444;28;20581;-58
2023/04/13 05:17:24;;;;;;;5.35;2.00;;;7.40;99.90;;;;;;5114209;28;20586;-58
2023/04/13 05:19:51;;;;;;;6.90;2.10;;;7.30;99.90;;;;;;5114302;28;20727;-58
2023/04/13 05:22:17;;;;;;;3.35;2.00;;;7.30;99.90;;;;;;5114373;28;20181;-58
2023/04/13 05:24:43;;;;;;;8.93;2.47;;;7.30;99.90;;;;;;5114718;28;20177;-58
2023/04/13 05:27:10;;;;;;;6.05;1.85;;;7.40;99.90;;;;;;5096602;28;20710;-57
2023/04/13 05:29:36;;;;;;;6.13;2.08;;;7.60;99.90;;;;;;5114360;28;20200;-58
2023/04/13 05:32:02;;;;;;;6.85;2.08;;;7.70;99.90;;;;;;5114248;28;20212;-58
2023/04/13 05:34:28;;;;;;;6.65;2.15;;;7.80;99.90;;;;;;5114244;28;20176;-58
2023/04/13 05:36:54;;;;;;;7.80;2.25;;;7.90;99.90;;;;;;5095915;28;20229;-58
2023/04/13 05:39:20;;;;;;;4.90;2.38;;;7.90;99.90;;;;;;5114375;28;20177;-58
2023/04/13 05:41:46;;;;;;;7.10;2.50;;;8.00;99.90;;;;;;5114230;28;20191;-58
2023/04/13 05:44:12;;;;;;;6.22;2.15;;;8.00;99.90;;;;;;5114189;28;20280;-58
2023/04/13 05:46:38;;;;;;;6.55;2.60;;;7.90;99.90;;;;;;5113856;28;20184;-58
2023/04/13 05:49:03;;;;;;;10.00;2.72;;;8.00;99.90;;;;;;5114326;28;20682;-58
2023/04/13 05:51:30;;;;;;;9.73;2.83;;;8.00;99.90;;;;;;5095616;28;20193;-59
2023/04/13 05:53:56;;;;;;;8.02;2.42;;;8.00;99.90;;;;;;5114068;28;20188;-58
2023/04/13 05:56:23;;;;;;;8.25;2.88;;;8.10;99.90;;;;;;5113908;28;20209;-58
2023/04/13 05:58:49;;;;;;;6.57;2.35;;;8.00;99.90;;;;;;5114005;28;20271;-58
2023/04/13 06:01:15;;;;;;;6.63;2.55;;;8.10;99.90;;;;;;5114268;28;20208;-58
2023/04/13 06:03:42;;;;;;;8.20;2.80;;;8.20;99.90;;;;;;5113831;28;20656;-58
2023/04/13 06:06:07;;;;;;;8.85;2.35;;;8.30;99.90;;;;;;5113599;28;20647;-58
2023/04/13 06:08:33;;;;;;;8.93;2.88;;;8.50;99.90;;;;;;5113977;28;20180;-58
2023/04/13 06:11:00;;;;;;;6.90;2.70;;;8.80;99.90;;;;;;5113706;28;20702;-58
2023/04/13 06:13:26;;;;;;;9.52;2.78;;;9.00;99.90;;;;;;5113787;28;20288;-58
2023/04/13 06:15:52;;;;;;;7.28;2.65;;;9.00;99.90;;;;;;5113666;28;20218;-58
2023/04/13 06:18:18;;;;;;;7.75;2.75;;;8.90;99.90;;;;;;5113662;28;20177;-58
2023/04/13 06:20:45;;;;;;;11.52;3.10;;;8.90;99.90;;;;;;5113510;28;20223;-58
2023/04/13 06:23:10;;;;;;;9.30;3.25;;;8.90;99.90;;;;;;5113763;28;20173;-58
2023/04/13 06:25:37;;;;;;;9.40;3.40;;;9.00;99.90;;;;;;5113834;28;20184;-58
2023/04/13 06:28:03;;;;;;;10.20;3.08;;;8.90;99.90;;;;;;5113654;28;20195;-58
2023/04/13 06:30:29;;;;;;;11.40;3.30;;;9.00;99.90;;;;;;5113427;28;20170;-58
2023/04/13 06:32:55;;;;;;;9.40;3.72;;;9.10;99.90;;;;;;5113451;28;20176;-58
2023/04/13 06:35:21;;;;;;;12.02;3.70;;;9.10;99.90;;;;;;5113444;28;20650;-58
2023/04/13 06:37:47;;;;;;;7.95;3.13;;;9.00;99.90;;;;;;5113587;28;20178;-58
2023/04/13 06:40:14;;;;;;;9.10;2.97;;;9.10;99.90;;;;;;5113565;28;20168;-58
2023/04/13 06:42:41;;;;;;;10.30;3.42;;;9.10;99.90;;;;;;5113514;28;20524;-58
2023/04/13 06:45:08;;;;;;;8.80;3.17;;;9.10;99.90;;;;;;5113428;28;20166;-58
2023/04/13 06:47:34;;;;;;;12.07;3.33;;;9.30;99.90;;;;;;5113180;28;20236;-58
2023/04/13 06:50:05;;;;;;;9.48;3.08;;;9.50;99.90;;;;;;5113156;28;20174;-58
2023/04/13 06:52:34;;;;;;;9.27;3.50;;;9.60;99.90;;;;;;5113294;28;20207;-58
2023/04/13 06:55:00;;;;;;;9.68;3.20;;;9.70;99.90;;;;;;5113361;28;20177;-58
2023/04/13 06:57:25;;;;;;;9.25;3.47;;;9.80;99.90;;;;;;5114411;28;20194;-58
2023/04/13 06:59:51;;;;;;;8.30;3.10;;;9.90;99.90;;;;;;5099078;28;20539;-58
2023/04/13 07:02:17;;;;;;;9.35;3.15;;;10.00;99.90;;;;;;5117159;28;20173;-58
2023/04/13 07:04:42;;;;;;;12.63;3.60;;;9.90;99.90;;;;;;5117319;28;20173;-58
2023/04/13 07:07:08;;;;;;;12.60;3.88;;;9.90;99.90;;;;;;5117302;28;20165;-58
2023/04/13 07:09:34;;;;;;;12.00;3.28;;;10.00;99.90;;;;;;5117438;28;20217;-58
2023/04/13 07:12:03;;;;;;;8.85;3.13;;;10.00;99.90;;;;;;5117015;28;20201;-58
2023/04/13 07:14:37;;;;;;;13.55;3.45;;;10.10;99.90;;;;;;5117032;28;20181;-58
2023/04/13 07:17:03;;;;;;;9.43;2.97;;;10.10;99.90;;;;;;5116909;28;20173;-58
2023/04/13 07:19:30;;;;;;;10.98;3.55;;;10.20;99.90;;;;;;5116894;28;20180;-58
2023/04/13 07:21:58;;;;;;;10.60;3.13;;;10.10;99.90;;;;;;5098740;28;20170;-58
2023/04/13 07:24:26;;;;;;;8.77;3.30;;;10.00;99.90;;;;;;5116842;28;20264;-58
2023/04/13 07:26:58;;;;;;;10.95;3.25;;;9.90;99.90;;;;;;5116905;28;20199;-58
2023/04/13 07:29:24;;;;;;;10.88;3.75;;;10.00;99.90;;;;;;5098392;28;20535;-58
2023/04/13 07:31:50;;;;;;;8.35;3.20;;;10.20;99.90;;;;;;5116661;28;20216;-58
2023/04/13 07:34:17;;;;;;;12.63;3.53;;;10.30;99.90;;;;;;5116793;28;20184;-58
2023/04/13 07:36:43;;;;;;;10.10;3.03;;;10.50;99.90;;;;;;5116757;28;20203;-58
2023/04/13 07:39:09;;;;;;;10.15;2.90;;;10.70;99.90;;;;;;5116618;28;20180;-58
2023/04/13 07:41:35;;;;;;;11.68;3.28;;;10.80;99.90;;;;;;5116588;28;20636;-58
2023/04/13 07:44:04;;;;;;;9.35;3.22;;;10.90;99.90;;;;;;5116446;28;20524;-58
2023/04/13 07:46:32;;;;;;;9.55;2.97;;;11.00;99.90;;;;;;5116571;28;20169;-58
2023/04/13 07:48:59;;;;;;;10.32;3.33;;;11.00;99.90;;;;;;5116217;28;20232;-58
2023/04/13 07:51:25;;;;;;;12.27;3.60;;;11.10;99.90;;;;;;5116521;28;20205;-58
2023/04/13 07:53:51;;;;;;;11.88;2.80;;;11.20;99.90;;;;;;5116218;28;20657;-58
2023/04/13 07:56:17;;;;;;;9.90;2.83;;;11.20;99.90;;;;;;5116278;28;20666;-58
2023/04/13 07:58:44;;;;;;;10.93;2.88;;;11.20;99.90;;;;;;5116154;28;20173;-58
2023/04/13 08:01:10;;;;;;;11.80;3.15;;;11.40;99.90;;;;;;5116337;28;20443;-58
2023/04/13 08:03:36;;;;;;;9.57;3.08;;;11.50;99.90;;;;;;5116297;28;20177;-58
2023/04/13 08:06:10;;;;;;;9.18;2.75;;;11.50;99.90;;;;;;5116115;28;20172;-59
2023/04/13 08:08:36;;;;;;;11.02;3.42;;;11.50;99.90;;;;;;5116110;28;20180;-60
2023/04/13 08:11:02;;;;;;;7.53;2.60;;;11.50;99.90;;;;;;5115633;28;20218;-59
2023/04/13 08:13:29;;;;;;;10.23;3.17;;;11.30;99.90;;;;;;5116096;28;20207;-59
2023/04/13 08:15:59;;;;;;;11.00;2.90;;;11.50;99.90;;;;;;5116244;28;20173;-60
2023/04/13 08:18:26;;;;;;;10.25;2.75;;;11.80;99.90;;;;;;5115862;28;20162;-60
2023/04/13 08:20:53;;;;;;;14.13;3.55;;;11.90;99.90;;;;;;5115792;28;20204;-57
2023/04/13 08:23:20;;;;;;;9.23;2.45;;;12.10;99.90;;;;;;5115732;28;20174;-57
2023/04/13 08:25:46;;;;;;;11.45;4.03;;;12.30;99.90;;;;;;5115488;28;20732;-59
2023/04/13 08:28:11;;;;;;;10.98;3.20;;;12.40;99.90;;;;;;5115822;28;20261;-57
2023/04/13 08:30:37;;;;;;;10.25;2.90;;;12.50;99.90;;;;;;5115463;28;20208;-59
2023/04/13 08:33:03;;;;;;;11.25;2.95;;;12.40;99.90;;;;;;5115613;28;20259;-59
2023/04/13 08:35:29;;;;;;;7.65;2.50;;;12.10;99.90;;;;;;5115560;28;20631;-59
2023/04/13 08:37:55;;;;;;;10.45;3.20;;;12.00;99.90;;;;;;5115523;28;20256;-59
2023/04/13 08:40:21;;;;;;;9.70;3.00;;;11.80;99.90;;;;;;5115313;28;20203;-59
2023/04/13 08:42:47;;;;;;;9.55;3.10;;;11.80;99.90;;;;;;5115278;28;20181;-59
2023/04/13 08:45:14;;;;;;;11.20;3.25;;;11.90;99.90;;;;;;5115326;28;20166;-59
2023/04/13 08:47:40;;;;;;;9.63;2.65;;;12.10;99.90;;;;;;5115285;28;20316;-59
2023/04/13 08:50:07;;;;;;;9.00;2.75;;;12.10;99.90;;;;;;5096808;28;20188;-57
2023/04/13 08:52:34;;;;;;;11.27;3.10;;;12.00;99.90;;;;;;5115088;28;20296;-59
2023/04/13 08:55:02;;;;;;;11.40;3.25;;;11.90;99.90;;;;;;5115024;28;20182;-59
2023/04/13 08:57:29;;;;;;;6.10;2.30;;;12.10;99.90;;;;;;5115125;28;20173;-59
2023/04/13 08:59:57;;;;;;;13.30;3.40;;;12.00;99.90;;;;;;5115110;28;20170;-60
2023/04/13 09:02:27;;;;;;;9.25;2.60;;;12.00;99.90;;;;;;5114897;28;20173;-59
2023/04/13 09:05:12;;;;;;;9.45;3.08;;;11.90;99.90;;;;;;5114829;28;20230;-58
2023/04/13 09:07:38;;;;;;;9.27;2.90;;;11.80;99.90;;;;;;5114731;28;20552;-59
2023/04/13 09:10:05;;;;;;;7.78;2.65;;;11.70;99.90;;;;;;5114940;28;20173;-59
2023/04/13 09:12:31;;;;;;;9.35;2.90;;;11.80;99.90;;;;;;5114775;28;20204;-58
2023/04/13 09:14:57;;;;;;;8.65;2.60;;;12.00;99.90;;;;;;5114757;28;20188;-58
2023/04/13 09:17:28;;;;;;;9.82;2.83;;;12.40;99.90;;;;;;5115088;28;20527;-59
2023/04/13 09:20:09;;;;;;;10.02;3.25;;;12.80;99.90;;;;;;5113961;28;20260;-59
2023/04/13 09:22:35;;;;;;;9.52;3.13;;;13.00;99.90;;;;;;5114779;28;20531;-59
2023/04/13 09:25:01;;;;;;;10.60;3.58;;;13.10;99.90;;;;;;5114584;28;20265;-59
2023/04/13 09:27:27;;;;;;;9.43;2.78;;;13.00;99.90;;;;;;5114806;28;20170;-58
2023/04/13 09:29:54;;;;;;;9.85;3.15;;;12.80;99.90;;;;;;5114742;28;20529;-58
2023/04/13 09:32:24;;;;;;;11.50;3.13;;;13.00;99.90;;;;;;5114160;28;20186;-58
2023/04/13 09:35:04;;;;;;;11.68;3.10;;;13.10;99.90;;;;;;5114788;28;20196;-59
2023/04/13 09:37:46;;;;;;;7.75;2.40;;;13.30;99.90;;;;;;5114532;28;20627;-59
2023/04/13 09:40:17;;;;;;;8.10;2.72;;;13.40;99.90;;;;;;5114354;28;20535;-58
2023/04/13 09:43:00;;;;;;;8.65;2.80;;;13.70;99.90;;;;;;5113990;28;20344;-59
2023/04/13 09:45:39;;;;;;;8.68;2.75;;;14.10;99.90;;;;;;5114542;28;20184;-59
2023/04/13 09:48:17;;;;;;;8.13;2.63;;;13.90;99.90;;;;;;5114235;28;20220;-58
2023/04/13 09:50:43;;;;;;;7.07;2.35;;;13.90;99.90;;;;;;5113944;28;20638;-58
2023/04/13 09:53:11;;;;;;;5.85;2.63;;;13.60;99.90;;;;;;5113953;28;20208;-59
2023/04/13 09:55:38;;;;;;;8.43;2.75;;;13.20;99.90;;;;;;5113894;28;20175;-58
2023/04/13 09:58:10;;;;;;;5.90;2.30;;;13.20;99.90;;;;;;5114062;28;20531;-59
2023/04/13 10:00:41;;;;;;;7.03;2.92;;;12.90;99.90;;;;;;5113850;28;20248;-59
2023/04/13 10:03:12;;;;;;;8.85;2.65;;;12.70;99.90;;;;;;5114098;28;20252;-59
2023/04/13 10:05:39;;;;;;;8.90;2.80;;;12.90;99.90;;;;;;5113643;28;20646;-59
2023/04/13 10:08:05;;;;;;;9.15;3.15;;;12.90;99.90;;;;;;5113637;28;20635;-59
2023/04/13 10:10:38;;;;;;;7.72;2.60;;;13.00;99.90;;;;;;5113787;28;20176;-59
2023/04/13 10:13:25;;;;;;;9.75;3.13;;;13.30;99.90;;;;;;5113806;28;20181;-59
2023/04/13 10:16:11;;;;;;;9.18;2.70;;;13.50;99.90;;;;;;5113668;28;20204;-59
2023/04/13 10:18:58;;;;;;;8.98;2.80;;;13.60;99.90;;;;;;5113665;28;20699;-59
2023/04/13 10:21:34;;;;;;;6.85;2.35;;;13.80;99.90;;;;;;5113705;28;20173;-59
2023/04/13 10:24:07;;;;;;;9.30;3.10;;;13.80;99.90;;;;;;5113679;28;20168;-59
2023/04/13 10:26:35;;;;;;;7.93;2.42;;;13.70;99.90;;;;;;5113590;28;20174;-58
2023/04/13 10:29:02;;;;;;;7.15;2.35;;;13.60;99.90;;;;;;5113704;28;20166;-58
2023/04/13 10:31:38;;;;;;;8.55;2.53;;;13.50;99.90;;;;;;5113609;28;20590;-59
2023/04/13 10:34:09;;;;;;;6.57;2.78;;;13.40;99.90;;;;;;5117707;28;20173;-59
2023/04/13 10:36:41;;;;;;;6.97;2.50;;;13.10;99.90;;;;;;5117989;28;20242;-58
2023/04/13 10:39:07;;;;;;;6.75;2.55;;;12.90;99.90;;;;;;5117627;28;20173;-59
2023/04/13 10:41:33;;;;;;;9.23;2.15;;;13.10;99.90;;;;;;5118130;28;20192;-59
2023/04/13 10:44:06;;;;;;;8.27;2.08;;;13.60;99.90;;;;;;5117981;28;20173;-59
2023/04/13 10:46:33;;;;;;;7.72;2.20;;;14.20;99.90;;;;;;5117525;28;20655;-59
2023/04/13 10:49:00;;;;;;;5.70;2.28;;;14.20;99.90;;;;;;5117277;28;20236;-59
2023/04/13 10:51:37;;;;;;;6.15;2.60;;;14.10;99.90;;;;;;5117479;28;20228;-59
2023/04/13 10:54:07;;;;;;;6.38;2.13;;;14.40;99.90;;;;;;5099319;28;20195;-59
2023/04/13 10:56:33;;;;;;;5.55;1.83;;;14.40;99.90;;;;;;5117588;28;20190;-59
2023/04/13 10:58:59;;;;;;;6.82;2.17;;;14.40;99.90;;;;;;5117368;28;20177;-59
2023/04/13 11:01:26;;;;;;;6.35;2.10;;;14.20;99.90;;;;;;5117429;28;20172;-59
2023/04/13 11:03:53;;;;;;;5.80;1.83;;;14.00;99.90;;;;;;5117265;28;20169;-59
2023/04/13 11:06:18;;;;;;;5.30;2.08;;;14.00;99.90;;;;;;5117143;28;20616;-59
2023/04/13 11:08:45;;;;;;;8.48;2.17;;;14.00;99.90;;;;;;5117334;28;20306;-56
2023/04/13 11:11:11;;;;;;;6.03;2.08;;;14.20;99.90;;;;;;5117189;28;20197;-59
2023/04/13 11:13:46;;;;;;;4.47;1.77;;;14.50;99.90;;;;;;5117137;28;20652;-58
2023/04/13 11:16:12;;;;;;;5.38;1.73;;;14.70;99.90;;;;;;5117059;28;20582;-58
2023/04/13 11:18:38;;;;;;;7.90;2.10;;;15.00;99.90;;;;;;5117010;28;20170;-58
2023/04/13 11:21:04;;;;;;;6.15;1.80;;;15.40;99.90;;;;;;5116825;28;20199;-58
2023/04/13 11:23:33;;;;;;;5.72;1.60;;;15.60;99.90;;;;;;5116957;28;20671;-57
2023/04/13 11:26:00;;;;;;;6.28;1.67;;;15.60;99.90;;;;;;5116791;28;20581;-58
2023/04/13 11:28:40;;;;;;;4.45;1.58;;;15.70;99.30;;;;;;5116902;28;20272;-57
2023/04/13 11:31:06;;;;;;;6.82;2.00;;;15.80;99.90;;;;;;5116619;28;20201;-57
2023/04/13 11:33:33;;;;;;;4.00;1.48;;;15.90;98.80;;;;;;5116592;28;20573;-57
2023/04/13 11:35:59;;;;;;;4.63;1.70;;;16.10;99.90;;;;;;5116773;28;20173;-58
2023/04/13 11:38:27;;;;;;;3.53;1.40;;;16.30;98.90;;;;;;5116739;28;20252;-58
2023/04/13 11:40:59;;;;;;;6.25;2.08;;;16.30;99.90;;;;;;5116591;28;20635;-57
2023/04/13 11:43:25;;;;;;;4.82;1.58;;;16.40;98.90;;;;;;5116286;28;20565;-57
2023/04/13 11:45:51;;;;;;;4.30;1.48;;;16.50;97.70;;;;;;5116487;28;20539;-58
2023/04/13 11:48:18;;;;;;;7.25;1.83;;;16.40;97.50;;;;;;5116690;28;20241;-57
2023/04/13 11:50:44;;;;;;;6.28;1.85;;;16.30;97.70;;;;;;5116479;28;20201;-58
2023/04/13 11:53:10;;;;;;;5.00;1.67;;;16.40;97.20;;;;;;5116535;28;20180;-57
2023/04/13 11:55:37;;;;;;;5.80;1.60;;;16.60;97.00;;;;;;5116323;28;20218;-58
2023/04/13 11:58:10;;;;;;;3.88;1.50;;;16.70;98.20;;;;;;5116192;28;20192;-58
2023/04/13 12:00:40;;;;;;;5.30;1.55;;;16.80;96.90;;;;;;5116162;28;20165;-58
2023/04/13 12:03:13;;;;;;;3.00;1.30;;;16.80;97.20;;;;;;5098126;28;20253;-58
2023/04/13 12:05:40;;;;;;;4.00;1.83;;;17.10;97.40;;;;;;5116277;28;20169;-61
2023/04/13 12:08:07;;;;;;;5.22;1.40;;;17.10;95.00;;;;;;5116083;28;20242;-59
2023/04/13 12:10:34;;;;;;;4.95;1.48;;;17.40;95.60;;;;;;5115980;28;20657;-58
2023/04/13 12:13:10;;;;;;;4.78;1.50;;;17.60;95.90;;;;;;5115896;28;20248;-58
2023/04/13 12:15:38;;;;;;;4.18;1.30;;;17.60;94.70;;;;;;5116171;28;20165;-58
2023/04/13 12:18:04;;;;;;;4.45;1.52;;;17.60;93.30;;;;;;5115928;28;20173;-58
2023/04/13 12:20:59;;;;;;;4.57;1.70;;;17.70;93.70;;;;;;5115788;28;20218;-58
2023/04/13 12:23:26;;;;;;;5.10;1.42;;;17.60;91.80;;;;;;5113383;28;20654;-57
2023/04/13 12:26:04;;;;;;;5.80;1.90;;;17.40;92.70;;;;;;5115834;28;20222;-58
2023/04/13 12:28:30;;;;;;;3.85;1.38;;;17.30;92.70;;;;;;5115643;28;20177;-57
2023/04/13 12:31:06;;;;;;;3.53;1.30;;;17.40;91.90;;;;;;5115717;28;20713;-58
2023/04/13 12:33:32;;;;;;;3.70;1.20;;;17.50;93.60;;;;;;5115473;28;20216;-58
2023/04/13 12:35:58;;;;;;;3.97;1.48;;;17.30;93.50;;;;;;5115364;28;20201;-57
2023/04/13 12:38:25;;;;;;;5.63;1.50;;;17.40;91.40;;;;;;5097335;28;20181;-57
2023/04/13 12:40:58;;;;;;;6.22;1.40;;;17.40;91.80;;;;;;5115472;28;20189;-57
2023/04/13 12:43:25;;;;;;;4.38;1.50;;;17.50;92.10;;;;;;5115362;28;20176;-58
2023/04/13 12:45:51;;;;;;;4.82;1.33;;;17.70;94.30;;;;;;5115455;28;20170;-58
2023/04/13 12:48:16;;;;;;;4.63;1.30;;;17.80;91.50;;;;;;5115299;28;20237;-58
2023/04/13 12:50:42;;;;;;;4.90;1.58;;;17.50;89.80;;;;;;5115260;28;20176;-58
2023/04/13 12:53:08;;;;;;;20.38;3.08;;;17.50;91.70;;;;;;5097031;28;20181;-57
2023/04/13 12:55:33;;;;;;;3.42;1.25;;;17.40;90.50;;;;;;5114497;28;20169;-57
2023/04/13 12:57:59;;;;;;;4.38;1.50;;;17.40;87.30;;;;;;5115078;28;20181;-58